sensor_id;sensor_type;location;lat;lon;timestamp;pressure;altitude;pressure_sealevel;temperature;humidity
18697;BME280;22617;43.690;27.956;2022-09-03T00:03:02;98596.94;;;19.59;92.55
18697;BME280;22617;43.690;27.956;2022-09-03T00:08:11;98610.78;;;19.83;92.33
18697;BME280;22617;43.690;27.956;2022-09-03T00:13:21;98594.03;;;20.01;92.42
18697;BME280;22617;43.690;27.956;2022-09-03T00:18:28;98587.75;;;20.03;91.56
18697;BME280;22617;43.690;27.956;2022-09-03T00:23:37;98582.88;;;20.13;91.20
18697;BME280;22617;43.690;27.956;2022-09-03T00:28:45;98572.34;;;20.12;89.98
18697;BME280;22617;43.690;27.956;2022-09-03T00:33:51;98556.31;;;20.15;89.64
18697;BME280;22617;43.690;27.956;2022-09-03T00:38:59;98559.75;;;20.17;89.42
18697;BME280;22617;43.690;27.956;2022-09-03T00:44:37;98584.00;;;20.08;89.13
18697;BME280;22617;43.690;27.956;2022-09-03T00:49:57;98594.81;;;20.03;88.69
18697;BME280;22617;43.690;27.956;2022-09-03T00:55:14;98597.06;;;19.93;88.36
18697;BME280;22617;43.690;27.956;2022-09-03T01:00:20;98589.22;;;19.73;88.03
18697;BME280;22617;43.690;27.956;2022-09-03T01:05:41;98598.84;;;19.37;87.09
18697;BME280;22617;43.690;27.956;2022-09-03T01:10:55;98598.31;;;19.29;87.98
18697;BME280;22617;43.690;27.956;2022-09-03T01:16:08;98596.41;;;19.13;87.45
18697;BME280;22617;43.690;27.956;2022-09-03T01:21:30;98619.72;;;19.04;87.46
18697;BME280;22617;43.690;27.956;2022-09-03T01:26:57;98614.75;;;19.16;87.30
18697;BME280;22617;43.690;27.956;2022-09-03T01:32:07;98614.69;;;18.98;86.64
18697;BME280;22617;43.690;27.956;2022-09-03T01:37:18;98602.22;;;19.01;87.34
18697;BME280;22617;43.690;27.956;2022-09-03T01:42:32;98590.00;;;18.99;86.88
18697;BME280;22617;43.690;27.956;2022-09-03T01:47:54;98591.41;;;18.67;87.21
18697;BME280;22617;43.690;27.956;2022-09-03T01:53:05;98595.25;;;18.60;87.13
18697;BME280;22617;43.690;27.956;2022-09-03T01:58:13;98601.56;;;18.34;87.55
18697;BME280;22617;43.690;27.956;2022-09-03T02:03:22;98601.53;;;18.36;87.64
18697;BME280;22617;43.690;27.956;2022-09-03T02:08:26;98594.25;;;18.20;88.51
18697;BME280;22617;43.690;27.956;2022-09-03T02:13:33;98592.34;;;18.44;88.75
18697;BME280;22617;43.690;27.956;2022-09-03T02:18:42;98595.38;;;18.35;87.55
18697;BME280;22617;43.690;27.956;2022-09-03T02:23:48;98599.66;;;18.17;87.82
18697;BME280;22617;43.690;27.956;2022-09-03T02:28:53;98602.09;;;18.00;88.02
18697;BME280;22617;43.690;27.956;2022-09-03T02:33:58;98611.88;;;17.98;88.93
18697;BME280;22617;43.690;27.956;2022-09-03T02:39:01;98612.66;;;18.00;88.64
18697;BME280;22617;43.690;27.956;2022-09-03T02:44:10;98616.31;;;18.18;88.43
18697;BME280;22617;43.690;27.956;2022-09-03T02:49:17;98615.09;;;18.26;87.43
18697;BME280;22617;43.690;27.956;2022-09-03T02:54:20;98608.63;;;18.34;87.25
18697;BME280;22617;43.690;27.956;2022-09-03T02:59:24;98602.69;;;18.28;87.22
18697;BME280;22617;43.690;27.956;2022-09-03T03:04:31;98604.03;;;18.39;86.95
18697;BME280;22617;43.690;27.956;2022-09-03T03:09:34;98593.22;;;18.45;86.54
18697;BME280;22617;43.690;27.956;2022-09-03T03:14:38;98588.25;;;18.37;87.03
18697;BME280;22617;43.690;27.956;2022-09-03T03:19:43;98580.81;;;18.26;86.86
18697;BME280;22617;43.690;27.956;2022-09-03T03:24:46;98572.88;;;18.26;86.84
18697;BME280;22617;43.690;27.956;2022-09-03T03:29:51;98581.25;;;18.16;87.29
18697;BME280;22617;43.690;27.956;2022-09-03T03:34:57;98574.28;;;17.93;87.90
18697;BME280;22617;43.690;27.956;2022-09-03T03:40:00;98566.66;;;18.07;88.33
18697;BME280;22617;43.690;27.956;2022-09-03T03:45:05;98558.78;;;18.06;88.13
18697;BME280;22617;43.690;27.956;2022-09-03T03:50:10;98555.34;;;18.04;88.70
18697;BME280;22617;43.690;27.956;2022-09-03T03:55:14;98556.22;;;18.04;89.01
18697;BME280;22617;43.690;27.956;2022-09-03T04:00:17;98546.91;;;18.17;88.74
18697;BME280;22617;43.690;27.956;2022-09-03T04:05:22;98562.13;;;18.51;88.45
18697;BME280;22617;43.690;27.956;2022-09-03T04:10:27;98567.53;;;18.48;87.80
18697;BME280;22617;43.690;27.956;2022-09-03T04:15:31;98566.81;;;18.45;87.59
18697;BME280;22617;43.690;27.956;2022-09-03T04:20:36;98578.31;;;18.44;87.31
18697;BME280;22617;43.690;27.956;2022-09-03T04:25:40;98589.25;;;18.35;87.82
18697;BME280;22617;43.690;27.956;2022-09-03T04:30:43;98599.03;;;17.89;88.19
18697;BME280;22617;43.690;27.956;2022-09-03T04:35:51;98618.09;;;17.74;88.75
18697;BME280;22617;43.690;27.956;2022-09-03T04:40:55;98618.22;;;17.71;88.97
18697;BME280;22617;43.690;27.956;2022-09-03T04:46:00;98633.63;;;17.81;88.66
18697;BME280;22617;43.690;27.956;2022-09-03T04:51:07;98640.38;;;17.89;87.88
18697;BME280;22617;43.690;27.956;2022-09-03T04:56:12;98660.63;;;17.65;87.59
18697;BME280;22617;43.690;27.956;2022-09-03T05:01:18;98665.66;;;17.71;87.90
18697;BME280;22617;43.690;27.956;2022-09-03T05:06:23;98664.94;;;17.42;87.96
18697;BME280;22617;43.690;27.956;2022-09-03T05:11:27;98662.53;;;17.36;89.06
18697;BME280;22617;43.690;27.956;2022-09-03T05:16:31;98665.69;;;17.46;89.22
18697;BME280;22617;43.690;27.956;2022-09-03T05:21:36;98663.69;;;17.53;88.42
18697;BME280;22617;43.690;27.956;2022-09-03T05:26:40;98662.44;;;17.39;88.00
18697;BME280;22617;43.690;27.956;2022-09-03T05:31:43;98650.69;;;17.48;88.07
18697;BME280;22617;43.690;27.956;2022-09-03T05:36:48;98651.88;;;17.39;88.76
18697;BME280;22617;43.690;27.956;2022-09-03T05:41:54;98670.56;;;17.57;88.16
18697;BME280;22617;43.690;27.956;2022-09-03T05:46:57;98676.50;;;17.63;87.85
18697;BME280;22617;43.690;27.956;2022-09-03T05:52:02;98675.44;;;17.44;87.19
18697;BME280;22617;43.690;27.956;2022-09-03T05:57:06;98674.44;;;17.47;87.83
18697;BME280;22617;43.690;27.956;2022-09-03T06:02:09;98671.47;;;17.32;87.77
18697;BME280;22617;43.690;27.956;2022-09-03T06:07:16;98676.91;;;17.03;88.76
18697;BME280;22617;43.690;27.956;2022-09-03T06:12:20;98677.59;;;17.33;89.28
18697;BME280;22617;43.690;27.956;2022-09-03T06:17:23;98686.19;;;17.38;88.88
18697;BME280;22617;43.690;27.956;2022-09-03T06:22:28;98685.00;;;17.47;88.68
18697;BME280;22617;43.690;27.956;2022-09-03T06:27:32;98693.94;;;17.42;89.20
18697;BME280;22617;43.690;27.956;2022-09-03T06:32:42;98700.00;;;17.44;88.88
18697;BME280;22617;43.690;27.956;2022-09-03T06:37:47;98703.38;;;17.48;88.62
18697;BME280;22617;43.690;27.956;2022-09-03T06:42:56;98708.53;;;17.51;88.91
18697;BME280;22617;43.690;27.956;2022-09-03T06:48:02;98707.78;;;17.48;88.16
18697;BME280;22617;43.690;27.956;2022-09-03T06:53:07;98707.16;;;17.41;89.20
18697;BME280;22617;43.690;27.956;2022-09-03T06:58:11;98712.00;;;17.28;89.02
18697;BME280;22617;43.690;27.956;2022-09-03T07:03:15;98719.22;;;17.23;88.69
18697;BME280;22617;43.690;27.956;2022-09-03T07:08:21;98732.97;;;17.31;88.91
18697;BME280;22617;43.690;27.956;2022-09-03T07:13:25;98744.69;;;17.23;88.80
18697;BME280;22617;43.690;27.956;2022-09-03T07:18:29;98753.06;;;17.09;88.68
18697;BME280;22617;43.690;27.956;2022-09-03T07:23:35;98750.78;;;16.98;88.91
18697;BME280;22617;43.690;27.956;2022-09-03T07:28:40;98756.06;;;16.98;89.01
18697;BME280;22617;43.690;27.956;2022-09-03T07:33:44;98769.19;;;17.00;89.92
18697;BME280;22617;43.690;27.956;2022-09-03T07:38:49;98772.56;;;17.04;90.05
18697;BME280;22617;43.690;27.956;2022-09-03T07:43:53;98777.25;;;16.95;89.33
18697;BME280;22617;43.690;27.956;2022-09-03T07:48:58;98779.72;;;17.00;89.32
18697;BME280;22617;43.690;27.956;2022-09-03T07:54:06;98785.59;;;16.82;89.25
18697;BME280;22617;43.690;27.956;2022-09-03T07:59:12;98785.22;;;16.66;89.76
18697;BME280;22617;43.690;27.956;2022-09-03T08:04:15;98784.16;;;16.72;90.36
18697;BME280;22617;43.690;27.956;2022-09-03T08:09:20;98785.66;;;16.51;90.84
18697;BME280;22617;43.690;27.956;2022-09-03T08:14:23;98792.09;;;16.70;91.59
18697;BME280;22617;43.690;27.956;2022-09-03T08:19:27;98796.50;;;16.70;91.08
18697;BME280;22617;43.690;27.956;2022-09-03T08:24:32;98796.91;;;16.84;90.87
18697;BME280;22617;43.690;27.956;2022-09-03T08:29:36;98799.25;;;16.67;90.08
18697;BME280;22617;43.690;27.956;2022-09-03T08:34:40;98798.63;;;16.59;89.76
18697;BME280;22617;43.690;27.956;2022-09-03T08:39:45;98794.81;;;16.69;89.88
18697;BME280;22617;43.690;27.956;2022-09-03T08:44:50;98792.50;;;16.58;89.72
18697;BME280;22617;43.690;27.956;2022-09-03T08:49:59;98801.56;;;16.76;89.81
18697;BME280;22617;43.690;27.956;2022-09-03T08:55:20;98793.41;;;16.55;89.39
18697;BME280;22617;43.690;27.956;2022-09-03T09:00:28;98796.00;;;16.59;89.86
18697;BME280;22617;43.690;27.956;2022-09-03T09:05:44;98797.88;;;16.53;90.17
18697;BME280;22617;43.690;27.956;2022-09-03T09:11:00;98795.59;;;16.71;89.76
18697;BME280;22617;43.690;27.956;2022-09-03T09:16:14;98803.00;;;16.86;89.18
18697;BME280;22617;43.690;27.956;2022-09-03T09:21:25;98805.34;;;16.69;88.51
18697;BME280;22617;43.690;27.956;2022-09-03T09:26:32;98810.25;;;16.50;88.38
18697;BME280;22617;43.690;27.956;2022-09-03T09:31:36;98818.84;;;16.55;89.32
18697;BME280;22617;43.690;27.956;2022-09-03T09:36:44;98823.22;;;16.56;88.92
18697;BME280;22617;43.690;27.956;2022-09-03T09:42:03;98825.06;;;16.54;89.22
18697;BME280;22617;43.690;27.956;2022-09-03T09:47:12;98816.19;;;16.58;89.17
18697;BME280;22617;43.690;27.956;2022-09-03T09:52:19;98834.00;;;16.48;89.55
18697;BME280;22617;43.690;27.956;2022-09-03T09:57:28;98859.53;;;16.45;89.55
18697;BME280;22617;43.690;27.956;2022-09-03T10:02:33;98863.31;;;16.66;88.87
18697;BME280;22617;43.690;27.956;2022-09-03T10:07:39;98864.41;;;16.57;89.08
18697;BME280;22617;43.690;27.956;2022-09-03T10:12:48;98868.75;;;16.60;88.50
18697;BME280;22617;43.690;27.956;2022-09-03T10:18:01;98867.06;;;16.59;88.15
18697;BME280;22617;43.690;27.956;2022-09-03T10:23:10;98869.47;;;16.65;89.25
18697;BME280;22617;43.690;27.956;2022-09-03T10:28:17;98862.44;;;16.65;89.44
18697;BME280;22617;43.690;27.956;2022-09-03T10:33:23;98870.06;;;16.45;89.67
18697;BME280;22617;43.690;27.956;2022-09-03T10:38:32;98863.22;;;16.69;90.25
18697;BME280;22617;43.690;27.956;2022-09-03T10:49:33;98870.31;;;16.67;89.96
18697;BME280;22617;43.690;27.956;2022-09-03T10:54:52;98885.41;;;16.60;89.25
18697;BME280;22617;43.690;27.956;2022-09-03T11:00:04;98877.78;;;16.80;89.48
18697;BME280;22617;43.690;27.956;2022-09-03T11:05:13;98877.44;;;16.91;89.31
18697;BME280;22617;43.690;27.956;2022-09-03T11:10:21;98873.41;;;16.79;89.31
18697;BME280;22617;43.690;27.956;2022-09-03T11:15:35;98879.94;;;16.68;90.02
18697;BME280;22617;43.690;27.956;2022-09-03T11:20:42;98884.22;;;16.70;89.97
18697;BME280;22617;43.690;27.956;2022-09-03T11:25:49;98892.09;;;16.72;89.93
18697;BME280;22617;43.690;27.956;2022-09-03T11:31:05;98899.50;;;16.59;89.80
18697;BME280;22617;43.690;27.956;2022-09-03T11:36:26;98909.00;;;16.63;90.30
18697;BME280;22617;43.690;27.956;2022-09-03T11:41:33;98907.69;;;16.78;89.55
18697;BME280;22617;43.690;27.956;2022-09-03T11:46:39;98906.00;;;16.75;89.78
18697;BME280;22617;43.690;27.956;2022-09-03T11:51:43;98898.41;;;16.65;90.61
18697;BME280;22617;43.690;27.956;2022-09-03T11:56:46;98907.69;;;16.47;90.19
18697;BME280;22617;43.690;27.956;2022-09-03T12:01:57;98917.91;;;16.57;90.01
18697;BME280;22617;43.690;27.956;2022-09-03T12:07:17;98917.66;;;16.67;90.70
18697;BME280;22617;43.690;27.956;2022-09-03T12:12:44;98913.97;;;16.74;90.46
18697;BME280;22617;43.690;27.956;2022-09-03T12:17:56;98925.88;;;16.85;89.99
18697;BME280;22617;43.690;27.956;2022-09-03T12:23:28;98931.06;;;16.57;90.32
18697;BME280;22617;43.690;27.956;2022-09-03T12:28:36;98931.16;;;16.54;90.21
18697;BME280;22617;43.690;27.956;2022-09-03T12:33:47;98930.50;;;16.46;89.85
18697;BME280;22617;43.690;27.956;2022-09-03T12:38:52;98947.47;;;16.36;90.42
18697;BME280;22617;43.690;27.956;2022-09-03T12:44:13;98942.88;;;16.44;90.36
18697;BME280;22617;43.690;27.956;2022-09-03T12:49:18;98941.41;;;16.34;89.61
18697;BME280;22617;43.690;27.956;2022-09-03T12:54:41;98954.97;;;16.50;89.52
18697;BME280;22617;43.690;27.956;2022-09-03T12:59:54;98958.72;;;16.41;89.88
18697;BME280;22617;43.690;27.956;2022-09-03T13:05:02;98961.47;;;16.37;89.59
18697;BME280;22617;43.690;27.956;2022-09-03T13:10:16;98960.97;;;16.24;89.79
18697;BME280;22617;43.690;27.956;2022-09-03T13:15:26;98967.16;;;16.22;89.89
18697;BME280;22617;43.690;27.956;2022-09-03T13:20:39;98963.31;;;16.35;89.15
18697;BME280;22617;43.690;27.956;2022-09-03T13:25:54;98970.63;;;16.24;89.66
18697;BME280;22617;43.690;27.956;2022-09-03T13:31:10;98974.25;;;16.20;90.00
18697;BME280;22617;43.690;27.956;2022-09-03T13:36:25;98975.59;;;16.34;90.01
18697;BME280;22617;43.690;27.956;2022-09-03T13:41:36;98990.50;;;16.34;90.38
18697;BME280;22617;43.690;27.956;2022-09-03T13:46:45;98981.75;;;16.33;90.33
18697;BME280;22617;43.690;27.956;2022-09-03T13:51:57;98986.41;;;16.24;89.94
18697;BME280;22617;43.690;27.956;2022-09-03T13:57:05;98994.25;;;16.25;90.53
18697;BME280;22617;43.690;27.956;2022-09-03T14:02:21;99003.41;;;16.10;90.58
18697;BME280;22617;43.690;27.956;2022-09-03T14:07:39;98996.88;;;16.25;91.12
18697;BME280;22617;43.690;27.956;2022-09-03T14:12:48;98989.16;;;16.19;91.77
18697;BME280;22617;43.690;27.956;2022-09-03T14:17:58;98978.63;;;16.19;91.40
18697;BME280;22617;43.690;27.956;2022-09-03T14:23:09;98981.00;;;16.28;91.49
18697;BME280;22617;43.690;27.956;2022-09-03T14:28:28;98991.03;;;16.14;91.22
18697;BME280;22617;43.690;27.956;2022-09-03T14:33:38;98999.16;;;16.06;91.12
18697;BME280;22617;43.690;27.956;2022-09-03T14:38:59;99002.72;;;16.02;91.49
18697;BME280;22617;43.690;27.956;2022-09-03T14:44:31;99008.28;;;15.92;91.42
18697;BME280;22617;43.690;27.956;2022-09-03T14:49:56;99017.59;;;16.05;91.86
18697;BME280;22617;43.690;27.956;2022-09-03T14:55:13;99012.59;;;15.94;91.41
18697;BME280;22617;43.690;27.956;2022-09-03T15:00:26;99013.56;;;15.92;91.49
18697;BME280;22617;43.690;27.956;2022-09-03T15:05:49;99014.44;;;15.91;91.53
18697;BME280;22617;43.690;27.956;2022-09-03T15:10:59;99020.97;;;16.10;91.38
18697;BME280;22617;43.690;27.956;2022-09-03T15:16:12;99023.34;;;15.85;90.98
18697;BME280;22617;43.690;27.956;2022-09-03T15:21:27;99034.06;;;15.78;90.58
18697;BME280;22617;43.690;27.956;2022-09-03T15:26:53;99035.22;;;15.64;90.68
18697;BME280;22617;43.690;27.956;2022-09-03T15:32:06;99031.59;;;15.70;91.43
18697;BME280;22617;43.690;27.956;2022-09-03T15:37:19;99027.06;;;15.77;91.61
18697;BME280;22617;43.690;27.956;2022-09-03T15:42:27;99033.66;;;15.93;91.17
18697;BME280;22617;43.690;27.956;2022-09-03T15:47:36;99041.41;;;15.99;90.99
18697;BME280;22617;43.690;27.956;2022-09-03T15:52:57;99029.09;;;16.01;90.63
18697;BME280;22617;43.690;27.956;2022-09-03T15:58:10;99027.59;;;15.91;90.56
18697;BME280;22617;43.690;27.956;2022-09-03T16:03:32;99041.78;;;15.84;91.22
18697;BME280;22617;43.690;27.956;2022-09-03T16:08:40;99047.44;;;15.67;91.44
18697;BME280;22617;43.690;27.956;2022-09-03T16:14:02;99062.22;;;15.73;91.46
18697;BME280;22617;43.690;27.956;2022-09-03T16:19:12;99068.50;;;15.65;91.79
18697;BME280;22617;43.690;27.956;2022-09-03T16:24:21;99072.84;;;15.66;91.28
18697;BME280;22617;43.690;27.956;2022-09-03T16:29:29;99087.28;;;15.47;91.52
18697;BME280;22617;43.690;27.956;2022-09-03T16:34:41;99081.94;;;15.53;91.52
18697;BME280;22617;43.690;27.956;2022-09-03T16:39:54;99089.84;;;15.52;91.28
18697;BME280;22617;43.690;27.956;2022-09-03T16:45:10;99097.69;;;15.53;91.26
18697;BME280;22617;43.690;27.956;2022-09-03T16:50:25;99107.50;;;15.44;91.00
18697;BME280;22617;43.690;27.956;2022-09-03T16:55:53;99111.28;;;15.31;91.31
18697;BME280;22617;43.690;27.956;2022-09-03T17:01:09;99109.63;;;15.26;91.70
18697;BME280;22617;43.690;27.956;2022-09-03T17:06:26;99122.59;;;15.34;91.64
18697;BME280;22617;43.690;27.956;2022-09-03T17:11:42;99118.25;;;15.32;92.12
18697;BME280;22617;43.690;27.956;2022-09-03T17:16:59;99130.38;;;15.39;91.81
18697;BME280;22617;43.690;27.956;2022-09-03T17:22:14;99142.69;;;15.35;91.91
18697;BME280;22617;43.690;27.956;2022-09-03T17:27:42;99140.94;;;15.36;91.59
18697;BME280;22617;43.690;27.956;2022-09-03T17:33:17;99160.03;;;15.44;91.35
18697;BME280;22617;43.690;27.956;2022-09-03T17:44:21;99168.41;;;15.19;91.12
18697;BME280;22617;43.690;27.956;2022-09-03T17:49:33;99173.63;;;15.21;91.25
18697;BME280;22617;43.690;27.956;2022-09-03T17:54:47;99180.56;;;15.25;91.46
18697;BME280;22617;43.690;27.956;2022-09-03T17:59:56;99180.38;;;15.34;91.07
18697;BME280;22617;43.690;27.956;2022-09-03T18:05:16;99191.19;;;15.17;90.39
18697;BME280;22617;43.690;27.956;2022-09-03T18:10:26;99198.28;;;15.14;90.91
18697;BME280;22617;43.690;27.956;2022-09-03T18:15:35;99198.97;;;15.23;90.75
18697;BME280;22617;43.690;27.956;2022-09-03T18:20:45;99207.63;;;15.27;90.55
18697;BME280;22617;43.690;27.956;2022-09-03T18:26:32;99210.03;;;15.39;89.79
18697;BME280;22617;43.690;27.956;2022-09-03T18:31:55;99210.84;;;15.41;89.52
18697;BME280;22617;43.690;27.956;2022-09-03T18:37:21;99217.06;;;15.37;89.21
18697;BME280;22617;43.690;27.956;2022-09-03T18:42:50;99216.28;;;15.34;89.10
18697;BME280;22617;43.690;27.956;2022-09-03T18:48:20;99213.75;;;15.27;89.13
18697;BME280;22617;43.690;27.956;2022-09-03T18:53:55;99215.44;;;15.30;89.09
18697;BME280;22617;43.690;27.956;2022-09-03T18:59:29;99219.19;;;15.20;89.26
18697;BME280;22617;43.690;27.956;2022-09-03T19:05:07;99231.19;;;15.32;89.36
18697;BME280;22617;43.690;27.956;2022-09-03T19:10:39;99235.56;;;15.31;89.19
18697;BME280;22617;43.690;27.956;2022-09-03T19:16:06;99234.50;;;15.41;88.78
18697;BME280;22617;43.690;27.956;2022-09-03T19:21:33;99222.41;;;15.34;89.05
18697;BME280;22617;43.690;27.956;2022-09-03T19:27:07;99231.09;;;15.36;88.67
18697;BME280;22617;43.690;27.956;2022-09-03T19:33:08;99239.03;;;15.35;88.17
18697;BME280;22617;43.690;27.956;2022-09-03T19:38:40;99244.22;;;15.38;88.58
18697;BME280;22617;43.690;27.956;2022-09-03T19:44:24;99250.38;;;15.35;88.47
18697;BME280;22617;43.690;27.956;2022-09-03T19:50:01;99264.25;;;15.42;88.24
18697;BME280;22617;43.690;27.956;2022-09-03T19:55:26;99266.13;;;15.35;88.45
18697;BME280;22617;43.690;27.956;2022-09-03T20:00:51;99273.19;;;15.33;88.99
18697;BME280;22617;43.690;27.956;2022-09-03T20:06:13;99265.13;;;15.44;88.58
18697;BME280;22617;43.690;27.956;2022-09-03T20:11:36;99265.34;;;15.32;88.43
18697;BME280;22617;43.690;27.956;2022-09-03T20:16:50;99269.81;;;15.26;88.48
18697;BME280;22617;43.690;27.956;2022-09-03T20:22:01;99261.66;;;15.40;88.80
18697;BME280;22617;43.690;27.956;2022-09-03T20:27:21;99265.41;;;15.28;88.54
18697;BME280;22617;43.690;27.956;2022-09-03T20:32:53;99275.78;;;15.35;88.63
18697;BME280;22617;43.690;27.956;2022-09-03T20:38:11;99278.53;;;15.27;88.29
18697;BME280;22617;43.690;27.956;2022-09-03T20:43:33;99277.75;;;15.23;88.20
18697;BME280;22617;43.690;27.956;2022-09-03T20:48:50;99282.22;;;15.17;88.59
18697;BME280;22617;43.690;27.956;2022-09-03T20:54:04;99283.03;;;15.20;88.78
18697;BME280;22617;43.690;27.956;2022-09-03T20:59:15;99292.00;;;15.10;88.69
18697;BME280;22617;43.690;27.956;2022-09-03T21:04:35;99291.06;;;15.13;88.76
18697;BME280;22617;43.690;27.956;2022-09-03T21:09:47;99299.81;;;15.12;88.65
18697;BME280;22617;43.690;27.956;2022-09-03T21:15:01;99293.69;;;15.13;89.08
18697;BME280;22617;43.690;27.956;2022-09-03T21:20:20;99291.91;;;15.15;88.63
18697;BME280;22617;43.690;27.956;2022-09-03T21:25:31;99296.22;;;15.17;88.91
18697;BME280;22617;43.690;27.956;2022-09-03T21:30:37;99304.28;;;15.08;89.20
18697;BME280;22617;43.690;27.956;2022-09-03T21:35:49;99304.53;;;14.93;89.17
18697;BME280;22617;43.690;27.956;2022-09-03T21:40:57;99310.47;;;15.04;89.91
18697;BME280;22617;43.690;27.956;2022-09-03T21:46:05;99314.84;;;15.05;89.59
18697;BME280;22617;43.690;27.956;2022-09-03T21:51:14;99309.28;;;15.22;89.19
18697;BME280;22617;43.690;27.956;2022-09-03T22:01:54;99320.66;;;15.22;88.00
18697;BME280;22617;43.690;27.956;2022-09-03T22:07:06;99325.22;;;15.11;88.42
18697;BME280;22617;43.690;27.956;2022-09-03T22:12:17;99311.97;;;15.19;88.54
18697;BME280;22617;43.690;27.956;2022-09-03T22:17:30;99316.44;;;15.14;88.12
18697;BME280;22617;43.690;27.956;2022-09-03T22:22:41;99323.19;;;15.27;87.95
18697;BME280;22617;43.690;27.956;2022-09-03T22:27:52;99318.91;;;15.23;87.60
18697;BME280;22617;43.690;27.956;2022-09-03T22:33:05;99327.31;;;15.40;87.96
18697;BME280;22617;43.690;27.956;2022-09-03T22:38:27;99339.84;;;15.26;87.46
18697;BME280;22617;43.690;27.956;2022-09-03T22:43:34;99342.53;;;15.21;88.13
18697;BME280;22617;43.690;27.956;2022-09-03T22:49:06;99339.75;;;15.31;87.81
18697;BME280;22617;43.690;27.956;2022-09-03T22:54:26;99332.00;;;15.24;87.76
18697;BME280;22617;43.690;27.956;2022-09-03T22:59:36;99345.00;;;15.32;87.77
18697;BME280;22617;43.690;27.956;2022-09-03T23:04:46;99345.78;;;15.37;87.20
18697;BME280;22617;43.690;27.956;2022-09-03T23:09:59;99335.28;;;15.37;87.28
18697;BME280;22617;43.690;27.956;2022-09-03T23:15:06;99331.22;;;15.19;87.30
18697;BME280;22617;43.690;27.956;2022-09-03T23:20:15;99315.81;;;15.00;88.09
18697;BME280;22617;43.690;27.956;2022-09-03T23:25:27;99315.66;;;15.07;88.80
18697;BME280;22617;43.690;27.956;2022-09-03T23:30:32;99313.19;;;14.98;88.58
18697;BME280;22617;43.690;27.956;2022-09-03T23:35:42;99310.47;;;15.04;88.57
18697;BME280;22617;43.690;27.956;2022-09-03T23:40:50;99312.22;;;15.04;87.93
18697;BME280;22617;43.690;27.956;2022-09-03T23:46:02;99306.09;;;15.03;88.41
18697;BME280;22617;43.690;27.956;2022-09-03T23:51:16;99305.22;;;15.04;88.53
18697;BME280;22617;43.690;27.956;2022-09-03T23:56:48;99315.75;;;15.03;88.53
